createdAt,value
2023-04-13T00:01:11.929Z,99.90
2023-04-13T00:03:39.394Z,99.90
2023-04-13T00:06:11.450Z,99.90
2023-04-13T00:08:38.637Z,99.90
2023-04-13T00:11:07.987Z,99.90
2023-04-13T00:13:41.757Z,99.90
2023-04-13T00:16:10.325Z,99.90
2023-04-13T00:18:37.494Z,99.90
2023-04-13T00:21:04.432Z,99.90
2023-04-13T00:23:31.943Z,99.90
2023-04-13T00:26:01.370Z,99.90
2023-04-13T00:28:29.584Z,99.90
2023-04-13T00:30:56.295Z,99.90
2023-04-13T00:33:23.807Z,99.90
2023-04-13T00:35:51.010Z,99.90
2023-04-13T00:38:18.176Z,99.90
2023-04-13T00:40:44.994Z,99.90
2023-04-13T00:43:14.972Z,99.90
2023-04-13T00:45:42.153Z,99.90
2023-04-13T00:48:12.117Z,99.90
2023-04-13T00:50:39.932Z,99.90
2023-04-13T00:53:10.696Z,99.90
2023-04-13T00:55:39.437Z,99.90
2023-04-13T00:58:06.544Z,99.90
2023-04-13T01:00:33.729Z,99.90
2023-04-13T01:05:56.879Z,99.90
2023-04-13T01:08:41.980Z,99.90
2023-04-13T01:11:19.902Z,99.90
2023-04-13T01:13:56.524Z,99.90
2023-04-13T01:16:33.039Z,99.90
2023-04-13T01:19:00.868Z,99.90
2023-04-13T01:21:30.356Z,99.90
2023-04-13T01:23:57.550Z,99.90
2023-04-13T01:29:22.319Z,99.90
2023-04-13T01:32:01.280Z,99.90
2023-04-13T01:34:28.984Z,99.90
2023-04-13T01:36:56.838Z,99.90
2023-04-13T01:39:25.980Z,99.90
2023-04-13T01:41:52.579Z,99.90
2023-04-13T01:44:19.773Z,99.90
2023-04-13T01:46:52.874Z,99.90
2023-04-13T01:49:20.981Z,99.90
2023-04-13T01:51:50.701Z,99.90
2023-04-13T01:54:28.771Z,99.90
2023-04-13T01:56:59.999Z,99.90
2023-04-13T01:59:26.850Z,99.90
2023-04-13T02:01:54.603Z,99.90
2023-04-13T02:04:21.489Z,99.90
2023-04-13T02:06:48.705Z,99.90
2023-04-13T02:09:15.803Z,99.90
2023-04-13T02:11:44.236Z,99.90
2023-04-13T02:14:10.919Z,99.90
2023-04-13T02:16:39.022Z,99.90
2023-04-13T02:19:05.773Z,99.90
2023-04-13T02:21:32.808Z,99.90
2023-04-13T02:23:59.583Z,99.90
2023-04-13T02:26:27.435Z,99.90
2023-04-13T02:28:54.490Z,99.90
2023-04-13T02:31:23.225Z,99.90
2023-04-13T02:33:51.897Z,99.90
2023-04-13T02:36:19.453Z,99.90
2023-04-13T02:38:46.534Z,99.90
2023-04-13T02:41:13.215Z,99.90
2023-04-13T02:43:40.391Z,99.90
2023-04-13T02:46:07.748Z,99.90
2023-04-13T02:48:34.539Z,99.90
2023-04-13T02:51:01.656Z,99.90
2023-04-13T02:53:28.801Z,99.90
2023-04-13T02:55:56.026Z,99.90
2023-04-13T03:01:10.734Z,99.90
2023-04-13T03:03:38.061Z,99.90
2023-04-13T03:06:04.950Z,99.90
2023-04-13T03:08:31.728Z,99.90
2023-04-13T03:10:58.453Z,99.90
2023-04-13T03:13:25.203Z,99.90
2023-04-13T03:15:52.827Z,99.90
2023-04-13T03:18:19.925Z,99.90
2023-04-13T03:20:46.891Z,99.90
2023-04-13T03:23:14.055Z,99.90
2023-04-13T03:25:40.860Z,99.90
2023-04-13T03:28:08.026Z,99.90
2023-04-13T03:30:34.780Z,99.90
2023-04-13T03:33:02.405Z,99.90
2023-04-13T03:35:29.747Z,99.90
2023-04-13T03:37:57.025Z,99.90
2023-04-13T03:40:24.206Z,99.90
2023-04-13T03:42:51.025Z,99.90
2023-04-13T03:45:18.605Z,99.90
2023-04-13T03:47:45.978Z,99.90
2023-04-13T03:50:13.167Z,99.90
2023-04-13T03:52:40.340Z,99.90
2023-04-13T03:55:07.363Z,99.90
2023-04-13T03:57:34.987Z,99.90
2023-04-13T04:00:02.087Z,99.90
2023-04-13T04:02:29.462Z,99.90
2023-04-13T04:04:56.380Z,99.90
2023-04-13T04:07:23.189Z,99.90
2023-04-13T04:09:50.374Z,99.90
2023-04-13T04:12:17.532Z,99.90
2023-04-13T04:14:44.243Z,99.90
2023-04-13T04:17:11.020Z,99.90
2023-04-13T04:19:38.349Z,99.90
2023-04-13T04:22:07.251Z,99.90
2023-04-13T04:24:35.086Z,99.90
2023-04-13T04:27:02.640Z,99.90
2023-04-13T04:29:35.833Z,99.90
2023-04-13T04:32:11.291Z,99.90
2023-04-13T04:34:38.782Z,99.90
2023-04-13T04:37:19.720Z,99.90
2023-04-13T04:39:48.649Z,99.90
2023-04-13T04:42:19.010Z,99.90
2023-04-13T04:44:49.789Z,99.90
2023-04-13T04:47:17.821Z,99.90
2023-04-13T04:49:44.540Z,99.90
2023-04-13T04:52:12.888Z,99.90
2023-04-13T04:54:39.783Z,99.90
2023-04-13T04:57:10.990Z,99.90
2023-04-13T04:59:37.792Z,99.90
2023-04-13T05:02:04.661Z,99.90
2023-04-13T05:04:31.986Z,99.90
2023-04-13T05:06:58.717Z,99.90
2023-04-13T05:09:26.459Z,99.90
2023-04-13T05:11:53.632Z,99.90
2023-04-13T05:14:20.679Z,99.90
2023-04-13T05:16:47.349Z,99.90
2023-04-13T05:19:14.434Z,99.90
2023-04-13T05:21:41.199Z,99.90
2023-04-13T05:24:09.371Z,99.90
2023-04-13T05:26:36.134Z,99.90
2023-04-13T05:29:05.056Z,99.90
2023-04-13T05:31:31.728Z,99.90
2023-04-13T05:34:01.900Z,99.90
2023-04-13T05:36:32.709Z,99.90
2023-04-13T05:38:59.972Z,99.90
2023-04-13T05:41:28.059Z,99.90
2023-04-13T05:43:54.781Z,99.90
2023-04-13T05:46:22.052Z,99.90
2023-04-13T05:48:48.738Z,99.90
2023-04-13T05:51:18.732Z,99.90
2023-04-13T05:53:46.682Z,99.90
2023-04-13T05:56:14.064Z,99.90
2023-04-13T05:58:40.751Z,99.90
2023-04-13T06:01:13.795Z,99.90
2023-04-13T06:03:40.644Z,99.90
2023-04-13T06:06:10.108Z,99.90
2023-04-13T06:08:36.785Z,99.90
2023-04-13T06:11:03.553Z,99.90
2023-04-13T06:13:32.124Z,99.90
2023-04-13T06:16:00.214Z,99.90
2023-04-13T06:18:27.273Z,99.90
2023-04-13T06:20:54.791Z,99.90
2023-04-13T06:23:22.113Z,99.90
2023-04-13T06:25:50.093Z,99.90
2023-04-13T06:28:17.279Z,99.90
2023-04-13T06:30:44.092Z,99.90
2023-04-13T06:33:11.527Z,99.90
2023-04-13T06:35:38.660Z,99.90
2023-04-13T06:38:05.700Z,99.90
2023-04-13T06:40:33.254Z,99.90
2023-04-13T06:43:00.148Z,99.90
2023-04-13T06:45:26.809Z,99.90
2023-04-13T06:47:54.229Z,99.90
2023-04-13T06:50:21.676Z,99.90
2023-04-13T06:52:48.932Z,99.90
2023-04-13T06:55:17.648Z,99.90
2023-04-13T06:57:44.761Z,99.90
2023-04-13T07:00:28.294Z,99.90
2023-04-13T07:02:58.086Z,99.90
2023-04-13T07:05:24.959Z,99.90
2023-04-13T07:07:51.738Z,99.90
2023-04-13T07:10:18.469Z,99.90
2023-04-13T07:12:45.214Z,99.90
2023-04-13T07:15:12.026Z,99.90
2023-04-13T07:17:39.081Z,99.90
2023-04-13T07:20:07.684Z,99.90
2023-04-13T07:22:35.429Z,99.90
2023-04-13T07:25:04.499Z,99.90
2023-04-13T07:27:33.055Z,99.90
2023-04-13T07:30:00.368Z,99.90
2023-04-13T07:32:31.369Z,99.90
2023-04-13T07:35:01.409Z,99.90
2023-04-13T07:37:28.370Z,99.90
2023-04-13T07:39:55.160Z,99.90
2023-04-13T07:42:22.016Z,99.90
2023-04-13T07:44:48.764Z,99.90
2023-04-13T07:47:16.712Z,99.90
2023-04-13T07:49:43.667Z,99.90
2023-04-13T07:52:10.415Z,99.90
2023-04-13T07:54:37.482Z,99.90
2023-04-13T07:57:04.950Z,99.90
2023-04-13T07:59:31.681Z,99.90
2023-04-13T08:01:58.919Z,99.90
2023-04-13T08:04:26.392Z,99.90
2023-04-13T08:06:54.027Z,99.90
2023-04-13T08:09:21.191Z,99.90
2023-04-13T08:11:49.744Z,99.90
2023-04-13T08:14:16.737Z,99.90
2023-04-13T08:16:43.520Z,99.90
2023-04-13T08:19:10.331Z,99.90
2023-04-13T08:21:38.847Z,99.90
2023-04-13T08:24:06.381Z,99.90
2023-04-13T08:26:33.112Z,99.90
2023-04-13T08:29:00.403Z,99.90
2023-04-13T08:31:27.379Z,99.90
2023-04-13T08:33:55.928Z,99.90
2023-04-13T08:38:51.298Z,99.90
2023-04-13T08:41:18.864Z,99.90
2023-04-13T08:43:47.028Z,99.90
2023-04-13T08:46:21.499Z,99.90
2023-04-13T08:48:54.180Z,99.90
2023-04-13T08:51:22.526Z,99.90
2023-04-13T08:53:49.795Z,99.90
2023-04-13T08:56:17.754Z,99.90
2023-04-13T08:58:48.898Z,99.90
2023-04-13T09:01:17.275Z,99.90
2023-04-13T09:04:07.131Z,99.90
2023-04-13T09:06:37.699Z,99.90
2023-04-13T09:09:07.734Z,99.90
2023-04-13T09:11:34.457Z,99.90
2023-04-13T09:14:01.623Z,99.90
2023-04-13T09:16:28.490Z,99.90
2023-04-13T09:18:58.298Z,99.90
2023-04-13T09:21:40.902Z,99.90
2023-04-13T09:24:08.690Z,99.90
2023-04-13T09:26:48.187Z,99.90
2023-04-13T09:29:18.017Z,99.90
2023-04-13T09:31:48.225Z,99.90
2023-04-13T09:34:25.856Z,99.90
2023-04-13T09:36:54.025Z,99.90
2023-04-13T09:39:29.162Z,99.90
2023-04-13T09:41:56.879Z,99.90
2023-04-13T09:44:24.900Z,99.90
2023-04-13T09:47:02.879Z,99.90
2023-04-13T09:49:39.534Z,99.90
2023-04-13T09:52:08.291Z,99.90
2023-04-13T09:54:46.605Z,99.90
2023-04-13T09:57:24.584Z,99.90
2023-04-13T10:00:01.974Z,99.90
2023-04-13T10:02:29.052Z,99.90
2023-04-13T10:04:56.527Z,99.90
2023-04-13T10:07:26.857Z,99.90
2023-04-13T10:09:54.301Z,99.90
2023-04-13T10:12:22.293Z,99.90
2023-04-13T10:14:51.792Z,99.90
2023-04-13T10:18:01.483Z,99.90
2023-04-13T10:20:30.565Z,99.90
2023-04-13T10:22:58.608Z,99.90
2023-04-13T10:25:32.640Z,99.90
2023-04-13T10:28:00.740Z,99.90
2023-04-13T10:30:28.543Z,99.90
2023-04-13T10:33:06.575Z,99.90
2023-04-13T10:35:38.203Z,99.90
2023-04-13T10:38:05.912Z,99.90
2023-04-13T10:40:45.714Z,99.90
2023-04-13T10:43:12.620Z,99.90
2023-04-13T10:45:39.354Z,99.90
2023-04-13T10:48:07.843Z,99.90
2023-04-13T10:50:34.921Z,99.90
2023-04-13T10:53:06.031Z,99.90
2023-04-13T10:55:33.958Z,99.90
2023-04-13T10:58:02.783Z,99.90
2023-04-13T11:00:44.909Z,99.90
2023-04-13T11:03:15.481Z,99.90
2023-04-13T11:05:43.196Z,99.90
2023-04-13T11:08:10.137Z,99.90
2023-04-13T11:10:36.905Z,99.90
2023-04-13T11:13:03.649Z,99.90
2023-04-13T11:15:32.402Z,99.90
2023-04-13T11:18:01.024Z,99.90
2023-04-13T11:20:38.838Z,97.90
2023-04-13T11:23:16.268Z,97.20
2023-04-13T11:26:04.659Z,97.20
2023-04-13T11:28:42.484Z,97.70
2023-04-13T11:31:11.225Z,98.30
2023-04-13T11:33:40.240Z,99.50
2023-04-13T11:36:07.991Z,99.90
2023-04-13T11:38:34.798Z,99.90
2023-04-13T11:41:15.137Z,99.90
2023-04-13T11:43:46.214Z,99.90
2023-04-13T11:46:15.874Z,99.90
2023-04-13T11:48:43.547Z,99.90
2023-04-13T11:51:31.383Z,99.90
2023-04-13T11:53:58.734Z,99.60
2023-04-13T11:56:25.968Z,99.10
2023-04-13T11:58:53.523Z,98.30
2023-04-13T12:01:26.676Z,96.90
2023-04-13T12:04:14.616Z,97.00
2023-04-13T12:10:39.658Z,98.60
2023-04-13T12:16:05.340Z,99.90
2023-04-13T12:18:43.685Z,99.90
2023-04-13T12:21:20.402Z,99.90
2023-04-13T12:23:54.403Z,99.90
2023-04-13T12:28:57.574Z,99.90
2023-04-13T12:31:25.232Z,99.90
2023-04-13T12:33:51.923Z,99.90
2023-04-13T12:36:18.855Z,99.90
2023-04-13T12:38:46.166Z,99.90
2023-04-13T12:41:12.914Z,99.90
2023-04-13T12:43:39.866Z,99.90
2023-04-13T12:46:06.709Z,99.90
2023-04-13T12:48:33.475Z,99.90
2023-04-13T12:51:00.328Z,99.90
2023-04-13T12:53:27.402Z,99.90
2023-04-13T12:55:54.170Z,99.90
2023-04-13T12:58:21.096Z,99.90
2023-04-13T13:00:47.828Z,99.90
2023-04-13T13:03:15.260Z,99.40
2023-04-13T13:05:42.855Z,96.90
2023-04-13T13:08:10.099Z,95.00
2023-04-13T13:10:37.699Z,94.10
2023-04-13T13:13:06.184Z,93.10
2023-04-13T13:15:33.553Z,91.80
2023-04-13T13:18:04.449Z,90.40
2023-04-13T13:20:31.587Z,90.80
2023-04-13T13:22:58.373Z,90.40
2023-04-13T13:25:25.195Z,91.30
2023-04-13T13:30:26.259Z,90.80
2023-04-13T13:32:53.230Z,91.70
2023-04-13T13:35:19.958Z,92.00
2023-04-13T13:37:46.912Z,92.10
2023-04-13T13:40:14.061Z,92.30
2023-04-13T13:42:51.215Z,92.00
2023-04-13T13:45:20.411Z,93.50
2023-04-13T13:47:53.160Z,91.40
2023-04-13T13:50:23.897Z,92.80
2023-04-13T13:53:03.278Z,92.80
2023-04-13T13:55:31.785Z,93.60
2023-04-13T13:57:59.161Z,95.00
2023-04-13T14:00:26.132Z,96.30
2023-04-13T14:02:53.224Z,96.10
2023-04-13T14:05:22.493Z,96.90
2023-04-13T14:07:52.360Z,98.00
2023-04-13T14:10:19.125Z,97.90
2023-04-13T14:12:50.246Z,98.00
2023-04-13T14:15:18.083Z,97.40
2023-04-13T14:17:50.412Z,96.20
2023-04-13T14:20:22.509Z,97.10
2023-04-13T14:22:49.367Z,98.20
2023-04-13T14:25:16.077Z,96.30
2023-04-13T14:27:43.860Z,95.30
2023-04-13T14:30:11.075Z,95.20
2023-04-13T14:32:37.819Z,95.80
2023-04-13T14:35:05.083Z,96.30
2023-04-13T14:37:32.091Z,96.80
2023-04-13T14:39:59.372Z,97.00
2023-04-13T14:42:29.658Z,97.40
2023-04-13T14:44:56.749Z,97.70
2023-04-13T14:47:43.613Z,96.90
2023-04-13T14:50:11.605Z,96.90
2023-04-13T14:52:38.583Z,97.10
2023-04-13T14:55:05.809Z,97.90
2023-04-13T14:57:33.295Z,99.30
2023-04-13T15:00:00.148Z,99.90
2023-04-13T15:02:28.577Z,99.90
2023-04-13T15:04:56.139Z,99.90
2023-04-13T15:07:29.954Z,99.90
2023-04-13T15:09:59.077Z,99.90
2023-04-13T15:12:25.941Z,99.90
2023-04-13T15:14:52.831Z,99.90
2023-04-13T15:17:21.012Z,99.90
2023-04-13T15:19:47.785Z,99.90
2023-04-13T15:22:14.776Z,99.90
2023-04-13T15:24:41.682Z,99.90
2023-04-13T15:27:08.457Z,99.90
2023-04-13T15:29:35.277Z,99.90
2023-04-13T15:32:02.088Z,99.90
2023-04-13T15:34:28.868Z,99.90
2023-04-13T15:36:57.229Z,99.90
2023-04-13T15:39:23.871Z,99.90
2023-04-13T15:41:52.662Z,99.90
2023-04-13T15:44:19.483Z,99.90
2023-04-13T15:46:48.048Z,99.90
2023-04-13T15:49:15.144Z,99.90
2023-04-13T15:51:41.861Z,99.90
2023-04-13T15:54:08.620Z,99.90
2023-04-13T15:56:35.764Z,99.90
2023-04-13T15:59:02.747Z,99.90
2023-04-13T16:01:44.288Z,99.90
2023-04-13T16:04:11.800Z,99.90
2023-04-13T16:06:38.906Z,99.90
2023-04-13T16:09:05.791Z,99.90
2023-04-13T16:11:32.530Z,99.90
2023-04-13T16:14:07.158Z,99.90
2023-04-13T16:16:44.242Z,99.90
2023-04-13T16:19:12.518Z,99.90
2023-04-13T16:21:43.493Z,99.90
2023-04-13T16:24:10.690Z,99.90
2023-04-13T16:26:37.999Z,99.90
2023-04-13T16:29:05.756Z,99.90
2023-04-13T16:31:32.591Z,99.90
2023-04-13T16:33:59.462Z,99.90
2023-04-13T16:36:27.553Z,99.90
2023-04-13T16:38:54.334Z,99.90
2023-04-13T16:41:21.091Z,99.90
2023-04-13T16:43:47.860Z,99.90
2023-04-13T16:46:14.928Z,99.90
2023-04-13T16:48:41.948Z,99.90
2023-04-13T16:51:08.633Z,99.90
2023-04-13T16:53:35.442Z,99.90
2023-04-13T16:56:02.437Z,99.90
2023-04-13T16:58:29.187Z,99.90
2023-04-13T17:00:56.069Z,99.90
2023-04-13T17:03:23.034Z,99.90
2023-04-13T17:05:49.778Z,99.90
2023-04-13T17:08:17.519Z,99.90
2023-04-13T17:10:44.789Z,99.90
2023-04-13T17:13:11.592Z,99.90
2023-04-13T17:15:38.871Z,99.90
2023-04-13T17:18:06.179Z,99.90
2023-04-13T17:20:32.933Z,99.90
2023-04-13T17:22:59.562Z,99.90
2023-04-13T17:25:27.339Z,99.90
2023-04-13T17:27:54.049Z,99.90
2023-04-13T17:30:21.281Z,99.90
2023-04-13T17:32:48.043Z,99.90
2023-04-13T17:35:16.193Z,99.90
2023-04-13T17:37:43.153Z,99.90
2023-04-13T17:40:10.249Z,99.90
2023-04-13T17:42:37.020Z,99.90
2023-04-13T17:45:04.152Z,99.90
2023-04-13T17:47:31.168Z,99.90
2023-04-13T17:49:58.502Z,99.90
2023-04-13T17:52:25.504Z,99.90
2023-04-13T17:54:52.674Z,99.90
2023-04-13T17:57:19.377Z,99.90
2023-04-13T17:59:47.417Z,99.90
2023-04-13T18:02:14.411Z,99.90
2023-04-13T18:04:41.431Z,99.90
2023-04-13T18:07:08.169Z,99.90
2023-04-13T18:09:35.293Z,99.90
2023-04-13T18:12:02.171Z,99.90
2023-04-13T18:14:28.921Z,99.90
2023-04-13T18:16:56.285Z,99.90
2023-04-13T18:19:57.553Z,99.90
2023-04-13T18:22:24.319Z,99.90
2023-04-13T18:24:51.062Z,99.90
2023-04-13T18:27:17.971Z,99.90
2023-04-13T18:29:45.017Z,99.90
2023-04-13T18:32:11.668Z,99.90
2023-04-13T18:34:40.302Z,99.90
2023-04-13T18:37:07.086Z,99.90
2023-04-13T18:39:34.038Z,99.90
2023-04-13T18:42:01.037Z,99.90
2023-04-13T18:44:27.669Z,99.90
2023-04-13T18:46:54.468Z,99.90
2023-04-13T18:49:21.259Z,99.90
2023-04-13T18:52:01.383Z,99.90
2023-04-13T18:54:29.627Z,99.90
2023-04-13T18:56:56.295Z,99.90
2023-04-13T18:59:23.077Z,99.90
2023-04-13T19:01:49.940Z,99.90
2023-04-13T19:04:17.009Z,99.90
2023-04-13T19:06:43.790Z,99.90
2023-04-13T19:09:10.759Z,99.90
2023-04-13T19:12:07.012Z,99.90
2023-04-13T19:14:34.207Z,99.90
2023-04-13T19:17:00.980Z,99.90
2023-04-13T19:19:27.665Z,99.90
2023-04-13T19:21:55.992Z,99.90
2023-04-13T19:24:23.455Z,99.90
2023-04-13T19:26:50.264Z,99.90
2023-04-13T19:29:17.766Z,99.90
2023-04-13T19:31:45.652Z,99.90
2023-04-13T19:34:12.961Z,99.90
2023-04-13T19:36:41.302Z,99.90
2023-04-13T19:39:08.966Z,99.90
2023-04-13T19:41:38.392Z,99.90
2023-04-13T19:44:05.910Z,99.90
2023-04-13T19:46:32.775Z,99.90
2023-04-13T19:49:03.038Z,99.90
2023-04-13T19:51:32.193Z,99.90
2023-04-13T19:54:01.312Z,99.90
2023-04-13T19:56:30.496Z,99.90
2023-04-13T19:59:02.582Z,99.90
2023-04-13T20:01:31.089Z,99.90
2023-04-13T20:03:58.111Z,99.90
2023-04-13T20:06:27.205Z,99.90
2023-04-13T20:08:54.160Z,99.90
2023-04-13T20:11:21.081Z,99.90
2023-04-13T20:13:47.742Z,99.90
2023-04-13T20:16:14.833Z,99.90
2023-04-13T20:18:42.104Z,99.90
2023-04-13T20:21:10.722Z,99.90
2023-04-13T20:23:37.921Z,99.90
2023-04-13T20:26:05.430Z,99.90
2023-04-13T20:28:33.540Z,99.90
2023-04-13T20:31:00.351Z,99.90
2023-04-13T20:33:27.276Z,99.90
2023-04-13T20:35:55.540Z,99.90
2023-04-13T20:38:22.297Z,99.90
2023-04-13T20:40:48.991Z,99.90
2023-04-13T20:43:16.283Z,99.90
2023-04-13T20:45:45.438Z,99.90
2023-04-13T20:50:47.867Z,99.90
2023-04-13T20:53:16.849Z,99.90
2023-04-13T20:55:43.839Z,99.90
2023-04-13T20:58:10.923Z,99.90
2023-04-13T21:00:38.484Z,99.90
2023-04-13T21:03:09.291Z,99.90
2023-04-13T21:05:36.359Z,99.90
2023-04-13T21:08:03.474Z,99.90
2023-04-13T21:10:30.397Z,99.90
2023-04-13T21:12:57.125Z,99.90
2023-04-13T21:15:24.169Z,99.90
2023-04-13T21:17:50.883Z,99.90
2023-04-13T21:20:17.946Z,99.90
2023-04-13T21:22:44.945Z,99.90
2023-04-13T21:25:11.688Z,99.90
2023-04-13T21:27:38.683Z,99.90
2023-04-13T21:30:06.184Z,99.90
2023-04-13T21:32:32.857Z,99.90
2023-04-13T21:35:00.420Z,99.90
2023-04-13T21:37:29.280Z,99.90
2023-04-13T21:39:57.651Z,99.90
2023-04-13T21:42:24.598Z,99.90
2023-04-13T21:44:51.645Z,99.90
2023-04-13T21:47:18.661Z,99.90
2023-04-13T21:49:45.325Z,99.90
2023-04-13T21:52:12.302Z,99.90
2023-04-13T21:54:39.029Z,99.90
2023-04-13T21:57:05.814Z,99.90
2023-04-13T21:59:32.777Z,99.90
2023-04-13T22:01:59.611Z,99.90
2023-04-13T22:04:26.766Z,99.90
2023-04-13T22:06:53.572Z,99.90
2023-04-13T22:09:20.331Z,99.90
2023-04-13T22:11:47.278Z,99.90
2023-04-13T22:14:14.039Z,99.90
2023-04-13T22:16:41.009Z,99.90
2023-04-13T22:19:08.014Z,99.90
2023-04-13T22:21:36.087Z,99.90
2023-04-13T22:24:03.390Z,99.90
2023-04-13T22:26:30.574Z,99.90
2023-04-13T22:28:57.445Z,99.90
2023-04-13T22:31:24.593Z,99.90
2023-04-13T22:33:51.378Z,99.90
2023-04-13T22:36:19.981Z,99.90
2023-04-13T22:38:47.791Z,99.90
2023-04-13T22:41:14.690Z,99.90
2023-04-13T22:43:41.721Z,99.90
2023-04-13T22:46:08.512Z,99.90
2023-04-13T22:48:35.513Z,99.90
2023-04-13T22:51:03.570Z,99.90
2023-04-13T22:53:31.362Z,99.90
2023-04-13T22:55:59.233Z,99.90
2023-04-13T22:58:26.379Z,99.90
2023-04-13T23:00:53.356Z,99.90
2023-04-13T23:03:20.510Z,99.90
2023-04-13T23:05:47.399Z,99.90
2023-04-13T23:08:14.132Z,99.90
2023-04-13T23:10:40.866Z,99.90
2023-04-13T23:13:07.679Z,99.90
2023-04-13T23:15:34.396Z,99.90
2023-04-13T23:18:02.907Z,99.90
2023-04-13T23:20:29.796Z,99.90
2023-04-13T23:22:56.744Z,99.90
2023-04-13T23:25:23.538Z,99.90
2023-04-13T23:27:50.579Z,99.90
2023-04-13T23:30:17.339Z,99.90
2023-04-13T23:32:44.265Z,99.90
2023-04-13T23:35:11.270Z,99.90
2023-04-13T23:37:37.987Z,99.90
2023-04-13T23:40:05.634Z,99.90
2023-04-13T23:42:32.330Z,99.90
2023-04-13T23:44:59.058Z,99.90
2023-04-13T23:47:25.922Z,99.90
2023-04-13T23:49:54.092Z,99.90
2023-04-13T23:52:20.809Z,99.90
2023-04-13T23:54:47.775Z,99.90
2023-04-13T23:57:14.445Z,99.90
2023-04-13T23:59:41.280Z,99.90
